sensor_id;sensor_type;location;lat;lon;timestamp;P1;durP1;ratioP1;P2;durP2;ratioP2
4274;SDS011;2151;50.988;11.068;2023-09-19T00:02:03;115.77;;;5.80;;
4274;SDS011;2151;50.988;11.068;2023-09-19T00:04:35;115.10;;;6.00;;
4274;SDS011;2151;50.988;11.068;2023-09-19T00:07:01;115.77;;;5.90;;
4274;SDS011;2151;50.988;11.068;2023-09-19T00:09:29;113.17;;;6.00;;
4274;SDS011;2151;50.988;11.068;2023-09-19T00:11:59;115.87;;;5.60;;
4274;SDS011;2151;50.988;11.068;2023-09-19T00:14:26;115.80;;;6.10;;
4274;SDS011;2151;50.988;11.068;2023-09-19T00:16:54;113.87;;;5.67;;
4274;SDS011;2151;50.988;11.068;2023-09-19T00:19:21;116.57;;;5.90;;
4274;SDS011;2151;50.988;11.068;2023-09-19T00:21:47;114.70;;;5.73;;
4274;SDS011;2151;50.988;11.068;2023-09-19T00:26:49;113.33;;;5.80;;
4274;SDS011;2151;50.988;11.068;2023-09-19T00:29:16;114.00;;;5.80;;
4274;SDS011;2151;50.988;11.068;2023-09-19T00:31:45;115.80;;;5.73;;
4274;SDS011;2151;50.988;11.068;2023-09-19T00:34:12;116.07;;;5.70;;
4274;SDS011;2151;50.988;11.068;2023-09-19T00:36:38;113.37;;;5.80;;
4274;SDS011;2151;50.988;11.068;2023-09-19T00:39:06;116.23;;;6.10;;
4274;SDS011;2151;50.988;11.068;2023-09-19T00:41:32;113.97;;;6.10;;
4274;SDS011;2151;50.988;11.068;2023-09-19T00:44:02;115.17;;;6.23;;
4274;SDS011;2151;50.988;11.068;2023-09-19T00:46:28;114.47;;;6.33;;
4274;SDS011;2151;50.988;11.068;2023-09-19T00:48:55;115.77;;;6.47;;
4274;SDS011;2151;50.988;11.068;2023-09-19T00:51:23;113.83;;;6.30;;
4274;SDS011;2151;50.988;11.068;2023-09-19T00:53:52;114.20;;;6.30;;
4274;SDS011;2151;50.988;11.068;2023-09-19T00:56:19;116.27;;;6.90;;
4274;SDS011;2151;50.988;11.068;2023-09-19T00:58:47;115.63;;;6.73;;
4274;SDS011;2151;50.988;11.068;2023-09-19T01:01:13;115.80;;;6.70;;
4274;SDS011;2151;50.988;11.068;2023-09-19T01:03:41;114.20;;;6.33;;
4274;SDS011;2151;50.988;11.068;2023-09-19T01:06:08;116.67;;;6.47;;
4274;SDS011;2151;50.988;11.068;2023-09-19T01:08:35;116.37;;;6.43;;
4274;SDS011;2151;50.988;11.068;2023-09-19T01:11:38;114.50;;;6.30;;
4274;SDS011;2151;50.988;11.068;2023-09-19T01:16:58;121.10;;;6.93;;
4274;SDS011;2151;50.988;11.068;2023-09-19T01:19:37;114.70;;;6.90;;
4274;SDS011;2151;50.988;11.068;2023-09-19T01:22:21;115.97;;;6.60;;
4274;SDS011;2151;50.988;11.068;2023-09-19T01:29:42;114.87;;;7.27;;
4274;SDS011;2151;50.988;11.068;2023-09-19T01:32:11;117.37;;;6.93;;
4274;SDS011;2151;50.988;11.068;2023-09-19T01:37:14;115.57;;;6.50;;
4274;SDS011;2151;50.988;11.068;2023-09-19T01:39:40;114.70;;;6.47;;
4274;SDS011;2151;50.988;11.068;2023-09-19T01:42:14;115.00;;;6.57;;
4274;SDS011;2151;50.988;11.068;2023-09-19T01:44:55;116.27;;;6.70;;
4274;SDS011;2151;50.988;11.068;2023-09-19T01:47:28;115.97;;;7.00;;
4274;SDS011;2151;50.988;11.068;2023-09-19T01:50:11;114.30;;;6.53;;
4274;SDS011;2151;50.988;11.068;2023-09-19T01:52:48;115.10;;;7.00;;
4274;SDS011;2151;50.988;11.068;2023-09-19T01:55:15;120.90;;;6.83;;
4274;SDS011;2151;50.988;11.068;2023-09-19T01:57:48;118.20;;;7.40;;
4274;SDS011;2151;50.988;11.068;2023-09-19T02:00:16;114.00;;;7.10;;
4274;SDS011;2151;50.988;11.068;2023-09-19T02:02:45;117.27;;;7.17;;
4274;SDS011;2151;50.988;11.068;2023-09-19T02:05:13;115.40;;;7.40;;
4274;SDS011;2151;50.988;11.068;2023-09-19T02:07:47;115.87;;;7.30;;
4274;SDS011;2151;50.988;11.068;2023-09-19T02:10:14;115.80;;;7.07;;
4274;SDS011;2151;50.988;11.068;2023-09-19T02:12:41;122.83;;;7.47;;
4274;SDS011;2151;50.988;11.068;2023-09-19T02:15:08;117.07;;;7.33;;
4274;SDS011;2151;50.988;11.068;2023-09-19T02:17:34;114.77;;;7.27;;
4274;SDS011;2151;50.988;11.068;2023-09-19T02:20:01;114.50;;;7.10;;
4274;SDS011;2151;50.988;11.068;2023-09-19T02:22:28;115.73;;;7.47;;
4274;SDS011;2151;50.988;11.068;2023-09-19T02:24:55;117.57;;;7.37;;
4274;SDS011;2151;50.988;11.068;2023-09-19T02:27:25;116.70;;;7.30;;
4274;SDS011;2151;50.988;11.068;2023-09-19T02:29:51;115.87;;;7.87;;
4274;SDS011;2151;50.988;11.068;2023-09-19T02:32:18;115.57;;;7.73;;
4274;SDS011;2151;50.988;11.068;2023-09-19T02:34:44;117.87;;;7.30;;
4274;SDS011;2151;50.988;11.068;2023-09-19T02:37:12;118.20;;;7.70;;
4274;SDS011;2151;50.988;11.068;2023-09-19T02:39:42;114.20;;;7.63;;
4274;SDS011;2151;50.988;11.068;2023-09-19T02:42:09;115.00;;;7.40;;
4274;SDS011;2151;50.988;11.068;2023-09-19T02:44:35;115.57;;;7.97;;
4274;SDS011;2151;50.988;11.068;2023-09-19T02:47:02;116.33;;;8.03;;
4274;SDS011;2151;50.988;11.068;2023-09-19T02:49:29;115.13;;;7.47;;
4274;SDS011;2151;50.988;11.068;2023-09-19T02:51:55;115.47;;;7.40;;
4274;SDS011;2151;50.988;11.068;2023-09-19T02:54:22;119.17;;;7.83;;
4274;SDS011;2151;50.988;11.068;2023-09-19T02:56:49;114.77;;;7.47;;
4274;SDS011;2151;50.988;11.068;2023-09-19T02:59:16;115.70;;;8.03;;
4274;SDS011;2151;50.988;11.068;2023-09-19T03:01:45;115.47;;;7.90;;
4274;SDS011;2151;50.988;11.068;2023-09-19T03:04:14;115.43;;;7.77;;
4274;SDS011;2151;50.988;11.068;2023-09-19T03:06:46;115.60;;;7.73;;
4274;SDS011;2151;50.988;11.068;2023-09-19T03:09:17;116.90;;;8.10;;
4274;SDS011;2151;50.988;11.068;2023-09-19T03:11:45;116.77;;;7.83;;
4274;SDS011;2151;50.988;11.068;2023-09-19T03:14:12;115.67;;;7.90;;
4274;SDS011;2151;50.988;11.068;2023-09-19T03:16:39;114.90;;;8.57;;
4274;SDS011;2151;50.988;11.068;2023-09-19T03:19:05;116.20;;;8.80;;
4274;SDS011;2151;50.988;11.068;2023-09-19T03:21:32;114.80;;;7.83;;
4274;SDS011;2151;50.988;11.068;2023-09-19T03:23:58;114.30;;;8.63;;
4274;SDS011;2151;50.988;11.068;2023-09-19T03:26:25;114.63;;;7.97;;
4274;SDS011;2151;50.988;11.068;2023-09-19T03:28:53;114.80;;;7.70;;
4274;SDS011;2151;50.988;11.068;2023-09-19T03:31:19;116.30;;;7.73;;
4274;SDS011;2151;50.988;11.068;2023-09-19T03:33:46;115.33;;;8.20;;
4274;SDS011;2151;50.988;11.068;2023-09-19T03:36:12;114.40;;;8.03;;
4274;SDS011;2151;50.988;11.068;2023-09-19T03:38:39;114.60;;;7.40;;
4274;SDS011;2151;50.988;11.068;2023-09-19T03:41:06;113.80;;;8.10;;
4274;SDS011;2151;50.988;11.068;2023-09-19T03:43:32;115.03;;;8.83;;
4274;SDS011;2151;50.988;11.068;2023-09-19T03:46:02;116.40;;;7.90;;
4274;SDS011;2151;50.988;11.068;2023-09-19T03:48:32;114.13;;;7.80;;
4274;SDS011;2151;50.988;11.068;2023-09-19T03:51:00;113.47;;;7.87;;
4274;SDS011;2151;50.988;11.068;2023-09-19T03:53:26;114.53;;;8.17;;
4274;SDS011;2151;50.988;11.068;2023-09-19T03:55:53;113.50;;;8.10;;
4274;SDS011;2151;50.988;11.068;2023-09-19T03:58:19;114.07;;;8.03;;
4274;SDS011;2151;50.988;11.068;2023-09-19T04:00:46;112.77;;;7.90;;
4274;SDS011;2151;50.988;11.068;2023-09-19T04:03:14;114.70;;;8.40;;
4274;SDS011;2151;50.988;11.068;2023-09-19T04:05:46;114.30;;;7.87;;
4274;SDS011;2151;50.988;11.068;2023-09-19T04:08:15;115.07;;;7.93;;
4274;SDS011;2151;50.988;11.068;2023-09-19T04:10:42;113.80;;;7.67;;
4274;SDS011;2151;50.988;11.068;2023-09-19T04:13:09;113.40;;;8.07;;
4274;SDS011;2151;50.988;11.068;2023-09-19T04:15:36;113.20;;;7.97;;
4274;SDS011;2151;50.988;11.068;2023-09-19T04:18:03;113.80;;;8.40;;
4274;SDS011;2151;50.988;11.068;2023-09-19T04:20:30;112.90;;;7.80;;
4274;SDS011;2151;50.988;11.068;2023-09-19T04:22:56;113.27;;;8.10;;
4274;SDS011;2151;50.988;11.068;2023-09-19T04:25:23;112.97;;;7.47;;
4274;SDS011;2151;50.988;11.068;2023-09-19T04:27:49;116.13;;;8.10;;
4274;SDS011;2151;50.988;11.068;2023-09-19T04:30:16;114.77;;;7.73;;
4274;SDS011;2151;50.988;11.068;2023-09-19T04:32:42;112.90;;;7.80;;
4274;SDS011;2151;50.988;11.068;2023-09-19T04:35:10;111.80;;;7.00;;
4274;SDS011;2151;50.988;11.068;2023-09-19T04:37:40;114.07;;;6.80;;
4274;SDS011;2151;50.988;11.068;2023-09-19T04:40:08;112.53;;;6.60;;
4274;SDS011;2151;50.988;11.068;2023-09-19T04:42:44;113.37;;;6.40;;
4274;SDS011;2151;50.988;11.068;2023-09-19T04:45:10;112.67;;;6.33;;
4274;SDS011;2151;50.988;11.068;2023-09-19T04:47:37;112.90;;;6.27;;
4274;SDS011;2151;50.988;11.068;2023-09-19T04:50:08;111.63;;;6.60;;
4274;SDS011;2151;50.988;11.068;2023-09-19T04:52:41;114.20;;;6.50;;
4274;SDS011;2151;50.988;11.068;2023-09-19T04:55:09;110.70;;;6.13;;
4274;SDS011;2151;50.988;11.068;2023-09-19T04:57:36;113.00;;;5.43;;
4274;SDS011;2151;50.988;11.068;2023-09-19T05:00:03;109.60;;;5.50;;
4274;SDS011;2151;50.988;11.068;2023-09-19T05:02:38;111.00;;;6.00;;
4274;SDS011;2151;50.988;11.068;2023-09-19T05:05:06;111.50;;;5.90;;
4274;SDS011;2151;50.988;11.068;2023-09-19T05:07:33;112.00;;;5.60;;
4274;SDS011;2151;50.988;11.068;2023-09-19T05:10:00;114.67;;;5.07;;
4274;SDS011;2151;50.988;11.068;2023-09-19T05:12:27;111.37;;;5.10;;
4274;SDS011;2151;50.988;11.068;2023-09-19T05:14:53;113.70;;;5.00;;
4274;SDS011;2151;50.988;11.068;2023-09-19T05:17:20;112.63;;;5.33;;
4274;SDS011;2151;50.988;11.068;2023-09-19T05:19:46;111.13;;;5.83;;
4274;SDS011;2151;50.988;11.068;2023-09-19T05:22:12;111.67;;;5.50;;
4274;SDS011;2151;50.988;11.068;2023-09-19T05:24:40;110.97;;;5.80;;
4274;SDS011;2151;50.988;11.068;2023-09-19T05:27:06;112.43;;;6.00;;
4274;SDS011;2151;50.988;11.068;2023-09-19T05:29:33;111.50;;;6.27;;
4274;SDS011;2151;50.988;11.068;2023-09-19T05:31:59;113.27;;;6.40;;
4274;SDS011;2151;50.988;11.068;2023-09-19T05:34:26;119.87;;;7.50;;
4274;SDS011;2151;50.988;11.068;2023-09-19T05:36:56;113.30;;;7.20;;
4274;SDS011;2151;50.988;11.068;2023-09-19T05:39:22;112.37;;;6.73;;
4274;SDS011;2151;50.988;11.068;2023-09-19T05:41:49;113.53;;;6.50;;
4274;SDS011;2151;50.988;11.068;2023-09-19T05:44:15;111.80;;;6.03;;
4274;SDS011;2151;50.988;11.068;2023-09-19T05:46:42;114.07;;;6.57;;
4274;SDS011;2151;50.988;11.068;2023-09-19T05:49:08;110.57;;;6.23;;
4274;SDS011;2151;50.988;11.068;2023-09-19T05:51:34;113.17;;;6.77;;
4274;SDS011;2151;50.988;11.068;2023-09-19T05:54:01;110.80;;;6.27;;
4274;SDS011;2151;50.988;11.068;2023-09-19T05:56:28;112.30;;;6.80;;
4274;SDS011;2151;50.988;11.068;2023-09-19T05:58:54;113.00;;;7.17;;
4274;SDS011;2151;50.988;11.068;2023-09-19T06:01:21;113.63;;;6.80;;
4274;SDS011;2151;50.988;11.068;2023-09-19T06:03:47;113.87;;;7.07;;
4274;SDS011;2151;50.988;11.068;2023-09-19T06:06:14;113.90;;;7.60;;
4274;SDS011;2151;50.988;11.068;2023-09-19T06:08:40;117.97;;;7.90;;
4274;SDS011;2151;50.988;11.068;2023-09-19T06:11:08;117.93;;;7.77;;
4274;SDS011;2151;50.988;11.068;2023-09-19T06:13:35;114.17;;;8.10;;
4274;SDS011;2151;50.988;11.068;2023-09-19T06:16:02;112.90;;;8.10;;
4274;SDS011;2151;50.988;11.068;2023-09-19T06:18:31;115.97;;;8.50;;
4274;SDS011;2151;50.988;11.068;2023-09-19T06:21:00;116.77;;;7.57;;
4274;SDS011;2151;50.988;11.068;2023-09-19T06:23:26;120.50;;;8.10;;
4274;SDS011;2151;50.988;11.068;2023-09-19T06:25:55;115.80;;;7.83;;
4274;SDS011;2151;50.988;11.068;2023-09-19T06:28:22;121.67;;;8.60;;
4274;SDS011;2151;50.988;11.068;2023-09-19T06:30:51;121.27;;;7.90;;
4274;SDS011;2151;50.988;11.068;2023-09-19T06:33:18;115.90;;;8.13;;
4274;SDS011;2151;50.988;11.068;2023-09-19T06:35:46;116.87;;;7.57;;
4274;SDS011;2151;50.988;11.068;2023-09-19T06:38:14;114.40;;;7.63;;
4274;SDS011;2151;50.988;11.068;2023-09-19T06:40:41;117.30;;;7.47;;
4274;SDS011;2151;50.988;11.068;2023-09-19T06:43:09;117.17;;;7.53;;
4274;SDS011;2151;50.988;11.068;2023-09-19T06:45:36;117.97;;;7.77;;
4274;SDS011;2151;50.988;11.068;2023-09-19T06:48:03;116.10;;;7.90;;
4274;SDS011;2151;50.988;11.068;2023-09-19T06:50:29;118.10;;;8.00;;
4274;SDS011;2151;50.988;11.068;2023-09-19T06:52:57;115.07;;;7.93;;
4274;SDS011;2151;50.988;11.068;2023-09-19T06:55:25;114.90;;;7.50;;
4274;SDS011;2151;50.988;11.068;2023-09-19T06:57:55;122.50;;;6.87;;
4274;SDS011;2151;50.988;11.068;2023-09-19T07:00:21;115.80;;;7.60;;
4274;SDS011;2151;50.988;11.068;2023-09-19T07:03:02;117.57;;;6.90;;
4274;SDS011;2151;50.988;11.068;2023-09-19T07:05:31;114.40;;;6.67;;
4274;SDS011;2151;50.988;11.068;2023-09-19T07:08:01;117.27;;;6.90;;
4274;SDS011;2151;50.988;11.068;2023-09-19T07:10:27;114.27;;;6.70;;
4274;SDS011;2151;50.988;11.068;2023-09-19T07:12:58;113.90;;;6.50;;
4274;SDS011;2151;50.988;11.068;2023-09-19T07:15:26;114.87;;;6.20;;
4274;SDS011;2151;50.988;11.068;2023-09-19T07:17:53;115.00;;;6.40;;
4274;SDS011;2151;50.988;11.068;2023-09-19T07:20:20;113.90;;;6.40;;
4274;SDS011;2151;50.988;11.068;2023-09-19T07:22:46;114.43;;;6.07;;
4274;SDS011;2151;50.988;11.068;2023-09-19T07:25:17;116.43;;;6.40;;
4274;SDS011;2151;50.988;11.068;2023-09-19T07:27:43;116.07;;;6.37;;
4274;SDS011;2151;50.988;11.068;2023-09-19T07:30:11;113.90;;;6.07;;
4274;SDS011;2151;50.988;11.068;2023-09-19T07:32:38;115.30;;;6.47;;
4274;SDS011;2151;50.988;11.068;2023-09-19T07:35:05;114.50;;;6.67;;
4274;SDS011;2151;50.988;11.068;2023-09-19T07:37:32;117.10;;;6.83;;
4274;SDS011;2151;50.988;11.068;2023-09-19T07:40:02;115.30;;;6.57;;
4274;SDS011;2151;50.988;11.068;2023-09-19T07:42:36;117.67;;;6.90;;
4274;SDS011;2151;50.988;11.068;2023-09-19T07:45:05;117.87;;;6.83;;
4274;SDS011;2151;50.988;11.068;2023-09-19T07:47:31;114.37;;;7.07;;
4274;SDS011;2151;50.988;11.068;2023-09-19T07:49:59;117.27;;;7.13;;
4274;SDS011;2151;50.988;11.068;2023-09-19T07:52:28;117.10;;;6.90;;
4274;SDS011;2151;50.988;11.068;2023-09-19T07:54:55;115.80;;;7.07;;
4274;SDS011;2151;50.988;11.068;2023-09-19T07:57:23;117.40;;;7.23;;
4274;SDS011;2151;50.988;11.068;2023-09-19T07:59:51;114.77;;;6.77;;
4274;SDS011;2151;50.988;11.068;2023-09-19T08:02:17;116.40;;;6.43;;
4274;SDS011;2151;50.988;11.068;2023-09-19T08:04:44;116.20;;;6.40;;
4274;SDS011;2151;50.988;11.068;2023-09-19T08:07:14;114.40;;;6.13;;
4274;SDS011;2151;50.988;11.068;2023-09-19T08:09:40;118.07;;;5.37;;
4274;SDS011;2151;50.988;11.068;2023-09-19T08:12:07;111.97;;;4.83;;
4274;SDS011;2151;50.988;11.068;2023-09-19T08:14:36;114.27;;;5.27;;
4274;SDS011;2151;50.988;11.068;2023-09-19T08:17:04;116.77;;;5.60;;
4274;SDS011;2151;50.988;11.068;2023-09-19T08:19:32;113.63;;;5.23;;
4274;SDS011;2151;50.988;11.068;2023-09-19T08:21:58;119.60;;;5.43;;
4274;SDS011;2151;50.988;11.068;2023-09-19T08:24:25;113.30;;;5.30;;
4274;SDS011;2151;50.988;11.068;2023-09-19T08:26:54;113.77;;;5.60;;
4274;SDS011;2151;50.988;11.068;2023-09-19T08:29:22;114.27;;;5.77;;
4274;SDS011;2151;50.988;11.068;2023-09-19T08:31:54;115.60;;;5.80;;
4274;SDS011;2151;50.988;11.068;2023-09-19T08:34:21;117.07;;;5.87;;
4274;SDS011;2151;50.988;11.068;2023-09-19T08:36:47;116.37;;;5.27;;
4274;SDS011;2151;50.988;11.068;2023-09-19T08:39:14;112.90;;;5.13;;
4274;SDS011;2151;50.988;11.068;2023-09-19T08:41:41;112.10;;;5.50;;
4274;SDS011;2151;50.988;11.068;2023-09-19T08:44:07;114.17;;;5.33;;
4274;SDS011;2151;50.988;11.068;2023-09-19T08:46:37;110.20;;;4.40;;
4274;SDS011;2151;50.988;11.068;2023-09-19T08:49:08;110.67;;;4.80;;
4274;SDS011;2151;50.988;11.068;2023-09-19T08:54:12;108.87;;;4.13;;
4274;SDS011;2151;50.988;11.068;2023-09-19T08:56:41;109.07;;;4.70;;
4274;SDS011;2151;50.988;11.068;2023-09-19T08:59:09;108.37;;;4.10;;
4274;SDS011;2151;50.988;11.068;2023-09-19T09:01:37;109.93;;;4.07;;
4274;SDS011;2151;50.988;11.068;2023-09-19T09:04:06;108.60;;;4.00;;
4274;SDS011;2151;50.988;11.068;2023-09-19T09:06:35;111.87;;;4.27;;
4274;SDS011;2151;50.988;11.068;2023-09-19T09:09:02;108.87;;;3.93;;
4274;SDS011;2151;50.988;11.068;2023-09-19T09:11:29;110.67;;;4.17;;
4274;SDS011;2151;50.988;11.068;2023-09-19T09:13:59;109.40;;;4.20;;
4274;SDS011;2151;50.988;11.068;2023-09-19T09:16:26;110.90;;;4.40;;
4274;SDS011;2151;50.988;11.068;2023-09-19T09:18:53;107.80;;;3.80;;
4274;SDS011;2151;50.988;11.068;2023-09-19T09:21:21;108.37;;;4.07;;
4274;SDS011;2151;50.988;11.068;2023-09-19T09:23:48;111.53;;;4.07;;
4274;SDS011;2151;50.988;11.068;2023-09-19T09:26:16;107.43;;;3.73;;
4274;SDS011;2151;50.988;11.068;2023-09-19T09:28:46;111.27;;;4.77;;
4274;SDS011;2151;50.988;11.068;2023-09-19T09:31:23;109.20;;;4.20;;
4274;SDS011;2151;50.988;11.068;2023-09-19T09:33:54;110.40;;;4.20;;
4274;SDS011;2151;50.988;11.068;2023-09-19T09:36:37;108.43;;;4.10;;
4274;SDS011;2151;50.988;11.068;2023-09-19T09:39:04;110.40;;;4.10;;
4274;SDS011;2151;50.988;11.068;2023-09-19T09:41:42;111.20;;;4.40;;
4274;SDS011;2151;50.988;11.068;2023-09-19T09:44:13;109.90;;;4.10;;
4274;SDS011;2151;50.988;11.068;2023-09-19T09:46:42;109.40;;;4.00;;
4274;SDS011;2151;50.988;11.068;2023-09-19T09:49:41;112.13;;;4.50;;
4274;SDS011;2151;50.988;11.068;2023-09-19T09:52:20;109.40;;;4.27;;
4274;SDS011;2151;50.988;11.068;2023-09-19T09:55:00;110.20;;;3.97;;
4274;SDS011;2151;50.988;11.068;2023-09-19T09:57:28;108.83;;;4.60;;
4274;SDS011;2151;50.988;11.068;2023-09-19T09:59:57;109.07;;;4.07;;
4274;SDS011;2151;50.988;11.068;2023-09-19T10:02:47;108.97;;;4.40;;
4274;SDS011;2151;50.988;11.068;2023-09-19T10:05:17;109.10;;;4.23;;
4274;SDS011;2151;50.988;11.068;2023-09-19T10:07:44;111.37;;;4.40;;
4274;SDS011;2151;50.988;11.068;2023-09-19T10:10:32;110.87;;;4.23;;
4274;SDS011;2151;50.988;11.068;2023-09-19T10:13:20;108.20;;;4.23;;
4274;SDS011;2151;50.988;11.068;2023-09-19T10:15:50;109.90;;;4.07;;
4274;SDS011;2151;50.988;11.068;2023-09-19T10:18:22;107.80;;;4.13;;
4274;SDS011;2151;50.988;11.068;2023-09-19T10:20:49;109.67;;;4.50;;
4274;SDS011;2151;50.988;11.068;2023-09-19T10:23:18;111.23;;;4.80;;
4274;SDS011;2151;50.988;11.068;2023-09-19T10:25:49;109.47;;;4.07;;
4274;SDS011;2151;50.988;11.068;2023-09-19T10:28:16;110.87;;;4.60;;
4274;SDS011;2151;50.988;11.068;2023-09-19T10:30:48;108.53;;;4.47;;
4274;SDS011;2151;50.988;11.068;2023-09-19T10:33:16;108.00;;;4.17;;
4274;SDS011;2151;50.988;11.068;2023-09-19T10:35:46;110.40;;;4.27;;
4274;SDS011;2151;50.988;11.068;2023-09-19T10:38:14;111.30;;;4.00;;
4274;SDS011;2151;50.988;11.068;2023-09-19T10:40:44;107.27;;;4.20;;
4274;SDS011;2151;50.988;11.068;2023-09-19T10:43:18;110.77;;;4.17;;
4274;SDS011;2151;50.988;11.068;2023-09-19T10:45:45;109.67;;;3.90;;
4274;SDS011;2151;50.988;11.068;2023-09-19T10:48:13;106.60;;;4.70;;
4274;SDS011;2151;50.988;11.068;2023-09-19T10:50:49;112.60;;;4.47;;
4274;SDS011;2151;50.988;11.068;2023-09-19T10:53:17;108.07;;;4.60;;
4274;SDS011;2151;50.988;11.068;2023-09-19T10:55:48;107.40;;;4.57;;
4274;SDS011;2151;50.988;11.068;2023-09-19T10:58:24;107.97;;;3.90;;
4274;SDS011;2151;50.988;11.068;2023-09-19T11:03:19;112.17;;;4.80;;
4274;SDS011;2151;50.988;11.068;2023-09-19T11:08:27;108.37;;;5.10;;
4274;SDS011;2151;50.988;11.068;2023-09-19T11:10:53;108.37;;;4.47;;
4274;SDS011;2151;50.988;11.068;2023-09-19T11:13:27;106.60;;;4.83;;
4274;SDS011;2151;50.988;11.068;2023-09-19T11:26:41;108.20;;;3.97;;
4274;SDS011;2151;50.988;11.068;2023-09-19T11:29:48;106.10;;;4.27;;
4274;SDS011;2151;50.988;11.068;2023-09-19T11:32:07;108.00;;;4.10;;
4274;SDS011;2151;50.988;11.068;2023-09-19T11:34:41;106.27;;;4.33;;
4274;SDS011;2151;50.988;11.068;2023-09-19T11:39:40;105.53;;;4.10;;
4274;SDS011;2151;50.988;11.068;2023-09-19T11:42:45;108.10;;;5.20;;
4274;SDS011;2151;50.988;11.068;2023-09-19T11:47:57;107.40;;;4.13;;
4274;SDS011;2151;50.988;11.068;2023-09-19T11:50:24;106.57;;;4.80;;
4274;SDS011;2151;50.988;11.068;2023-09-19T11:52:51;106.07;;;4.33;;
4274;SDS011;2151;50.988;11.068;2023-09-19T11:55:20;108.17;;;4.87;;
4274;SDS011;2151;50.988;11.068;2023-09-19T11:57:50;107.87;;;4.87;;
4274;SDS011;2151;50.988;11.068;2023-09-19T12:00:17;105.87;;;4.53;;
4274;SDS011;2151;50.988;11.068;2023-09-19T12:02:46;108.27;;;5.10;;
4274;SDS011;2151;50.988;11.068;2023-09-19T12:05:13;112.60;;;4.70;;
4274;SDS011;2151;50.988;11.068;2023-09-19T12:07:42;107.43;;;4.20;;
4274;SDS011;2151;50.988;11.068;2023-09-19T12:10:08;106.27;;;4.70;;
4274;SDS011;2151;50.988;11.068;2023-09-19T12:12:37;110.10;;;5.07;;
4274;SDS011;2151;50.988;11.068;2023-09-19T12:15:04;105.10;;;3.93;;
4274;SDS011;2151;50.988;11.068;2023-09-19T12:17:35;108.07;;;5.33;;
4274;SDS011;2151;50.988;11.068;2023-09-19T12:20:02;107.30;;;4.43;;
4274;SDS011;2151;50.988;11.068;2023-09-19T12:22:47;111.50;;;4.87;;
4274;SDS011;2151;50.988;11.068;2023-09-19T12:25:15;108.60;;;5.20;;
4274;SDS011;2151;50.988;11.068;2023-09-19T12:27:44;106.60;;;4.80;;
4274;SDS011;2151;50.988;11.068;2023-09-19T12:30:13;107.70;;;5.20;;
4274;SDS011;2151;50.988;11.068;2023-09-19T12:32:53;106.37;;;4.27;;
4274;SDS011;2151;50.988;11.068;2023-09-19T12:35:28;106.87;;;4.40;;
4274;SDS011;2151;50.988;11.068;2023-09-19T12:37:57;106.57;;;4.37;;
4274;SDS011;2151;50.988;11.068;2023-09-19T12:40:23;111.60;;;5.00;;
4274;SDS011;2151;50.988;11.068;2023-09-19T12:42:56;108.70;;;4.77;;
4274;SDS011;2151;50.988;11.068;2023-09-19T12:45:24;109.67;;;4.60;;
4274;SDS011;2151;50.988;11.068;2023-09-19T12:50:37;111.30;;;4.93;;
4274;SDS011;2151;50.988;11.068;2023-09-19T12:53:26;112.40;;;4.73;;
4274;SDS011;2151;50.988;11.068;2023-09-19T12:55:59;108.20;;;4.80;;
4274;SDS011;2151;50.988;11.068;2023-09-19T12:58:26;109.27;;;4.87;;
4274;SDS011;2151;50.988;11.068;2023-09-19T13:00:53;108.63;;;5.13;;
4274;SDS011;2151;50.988;11.068;2023-09-19T13:08:25;118.93;;;5.27;;
4274;SDS011;2151;50.988;11.068;2023-09-19T13:11:02;115.57;;;5.17;;
4274;SDS011;2151;50.988;11.068;2023-09-19T13:13:30;109.07;;;4.40;;
4274;SDS011;2151;50.988;11.068;2023-09-19T13:15:56;107.97;;;4.70;;
4274;SDS011;2151;50.988;11.068;2023-09-19T13:18:24;106.37;;;4.33;;
4274;SDS011;2151;50.988;11.068;2023-09-19T13:21:11;110.70;;;4.87;;
4274;SDS011;2151;50.988;11.068;2023-09-19T13:23:42;107.50;;;4.40;;
4274;SDS011;2151;50.988;11.068;2023-09-19T13:26:10;107.70;;;4.67;;
4274;SDS011;2151;50.988;11.068;2023-09-19T13:28:38;107.47;;;4.70;;
4274;SDS011;2151;50.988;11.068;2023-09-19T13:31:04;108.33;;;4.33;;
4274;SDS011;2151;50.988;11.068;2023-09-19T13:33:31;108.03;;;4.33;;
4274;SDS011;2151;50.988;11.068;2023-09-19T13:35:58;109.83;;;4.97;;
4274;SDS011;2151;50.988;11.068;2023-09-19T13:38:25;109.53;;;4.83;;
4274;SDS011;2151;50.988;11.068;2023-09-19T13:40:51;111.10;;;5.10;;
4274;SDS011;2151;50.988;11.068;2023-09-19T13:43:19;114.73;;;5.27;;
4274;SDS011;2151;50.988;11.068;2023-09-19T13:45:50;112.73;;;4.80;;
4274;SDS011;2151;50.988;11.068;2023-09-19T13:48:16;112.17;;;4.73;;
4274;SDS011;2151;50.988;11.068;2023-09-19T13:50:46;109.20;;;5.30;;
4274;SDS011;2151;50.988;11.068;2023-09-19T13:53:13;108.37;;;4.93;;
4274;SDS011;2151;50.988;11.068;2023-09-19T13:55:40;109.37;;;5.10;;
4274;SDS011;2151;50.988;11.068;2023-09-19T13:58:07;107.93;;;4.90;;
4274;SDS011;2151;50.988;11.068;2023-09-19T14:00:37;108.87;;;5.03;;
4274;SDS011;2151;50.988;11.068;2023-09-19T14:03:05;107.77;;;4.70;;
4274;SDS011;2151;50.988;11.068;2023-09-19T14:05:32;108.67;;;4.80;;
4274;SDS011;2151;50.988;11.068;2023-09-19T14:07:59;109.80;;;4.63;;
4274;SDS011;2151;50.988;11.068;2023-09-19T14:10:25;107.60;;;4.70;;
4274;SDS011;2151;50.988;11.068;2023-09-19T14:12:53;108.77;;;4.90;;
4274;SDS011;2151;50.988;11.068;2023-09-19T14:15:20;107.77;;;4.70;;
4274;SDS011;2151;50.988;11.068;2023-09-19T14:17:58;113.70;;;4.73;;
4274;SDS011;2151;50.988;11.068;2023-09-19T14:20:27;108.47;;;4.70;;
4274;SDS011;2151;50.988;11.068;2023-09-19T14:22:53;108.07;;;4.50;;
4274;SDS011;2151;50.988;11.068;2023-09-19T14:25:20;111.30;;;5.10;;
4274;SDS011;2151;50.988;11.068;2023-09-19T14:27:49;107.90;;;4.77;;
4274;SDS011;2151;50.988;11.068;2023-09-19T14:30:16;105.83;;;4.40;;
4274;SDS011;2151;50.988;11.068;2023-09-19T14:32:43;109.30;;;4.97;;
4274;SDS011;2151;50.988;11.068;2023-09-19T14:35:09;109.70;;;4.67;;
4274;SDS011;2151;50.988;11.068;2023-09-19T14:37:37;109.03;;;4.30;;
4274;SDS011;2151;50.988;11.068;2023-09-19T14:40:04;113.90;;;4.73;;
4274;SDS011;2151;50.988;11.068;2023-09-19T14:42:36;109.77;;;4.80;;
4274;SDS011;2151;50.988;11.068;2023-09-19T14:45:04;109.70;;;5.20;;
4274;SDS011;2151;50.988;11.068;2023-09-19T14:47:31;108.37;;;4.60;;
4274;SDS011;2151;50.988;11.068;2023-09-19T14:50:01;109.10;;;4.97;;
4274;SDS011;2151;50.988;11.068;2023-09-19T14:52:29;109.87;;;5.13;;
4274;SDS011;2151;50.988;11.068;2023-09-19T14:54:55;112.93;;;5.27;;
4274;SDS011;2151;50.988;11.068;2023-09-19T14:57:21;107.80;;;5.00;;
4274;SDS011;2151;50.988;11.068;2023-09-19T14:59:50;108.37;;;4.73;;
4274;SDS011;2151;50.988;11.068;2023-09-19T15:02:17;113.60;;;5.40;;
4274;SDS011;2151;50.988;11.068;2023-09-19T15:04:44;110.87;;;5.10;;
4274;SDS011;2151;50.988;11.068;2023-09-19T15:07:13;113.17;;;5.37;;
4274;SDS011;2151;50.988;11.068;2023-09-19T15:09:43;108.47;;;4.93;;
4274;SDS011;2151;50.988;11.068;2023-09-19T15:12:10;111.37;;;5.63;;
4274;SDS011;2151;50.988;11.068;2023-09-19T15:14:40;109.97;;;5.13;;
4274;SDS011;2151;50.988;11.068;2023-09-19T15:17:08;113.13;;;5.40;;
4274;SDS011;2151;50.988;11.068;2023-09-19T15:19:35;108.03;;;4.37;;
4274;SDS011;2151;50.988;11.068;2023-09-19T15:22:02;110.17;;;5.00;;
4274;SDS011;2151;50.988;11.068;2023-09-19T15:24:28;107.73;;;4.53;;
4274;SDS011;2151;50.988;11.068;2023-09-19T15:26:55;107.93;;;4.87;;
4274;SDS011;2151;50.988;11.068;2023-09-19T15:29:22;110.30;;;5.13;;